createdAt,value
2022-08-25T00:00:12.921Z,23.60
2022-08-25T00:06:15.870Z,23.60
2022-08-25T00:12:26.106Z,23.50
2022-08-25T00:18:28.420Z,23.40
2022-08-25T00:24:31.065Z,23.40
2022-08-25T00:30:33.228Z,23.40
2022-08-25T00:36:35.745Z,23.40
2022-08-25T00:42:38.674Z,23.30
2022-08-25T00:48:42.804Z,23.30
2022-08-25T00:54:50.535Z,23.30
2022-08-25T01:00:56.095Z,23.40
2022-08-25T01:06:59.409Z,23.50
2022-08-25T01:13:28.064Z,23.30
2022-08-25T01:19:32.412Z,23.20
2022-08-25T01:25:57.602Z,23.20
2022-08-25T01:32:03.360Z,23.30
2022-08-25T01:38:06.623Z,23.30
2022-08-25T01:44:09.217Z,23.30
2022-08-25T01:50:16.736Z,23.30
2022-08-25T01:56:19.698Z,23.20
2022-08-25T02:02:22.156Z,23.20
2022-08-25T02:08:25.387Z,23.20
2022-08-25T02:14:28.906Z,23.10
2022-08-25T02:20:31.278Z,23.00
2022-08-25T02:26:35.287Z,23.00
2022-08-25T02:32:37.493Z,22.90
2022-08-25T02:38:40.253Z,22.80
2022-08-25T02:44:42.703Z,22.80
2022-08-25T02:50:48.989Z,22.80
2022-08-25T02:56:51.159Z,22.80
2022-08-25T03:02:53.469Z,22.70
2022-08-25T03:08:56.006Z,22.70
2022-08-25T03:14:58.139Z,22.60
2022-08-25T03:21:00.871Z,22.60
2022-08-25T03:27:03.172Z,22.60
2022-08-25T03:33:05.348Z,22.70
2022-08-25T03:39:09.134Z,22.80
2022-08-25T03:45:13.077Z,22.80
2022-08-25T03:51:30.798Z,22.80
2022-08-25T03:57:33.223Z,22.90
2022-08-25T04:03:35.583Z,22.90
2022-08-25T04:09:38.187Z,23.00
2022-08-25T04:15:44.257Z,23.10
2022-08-25T04:21:46.788Z,23.30
2022-08-25T04:27:49.063Z,23.60
2022-08-25T04:33:51.239Z,23.90
2022-08-25T04:39:53.609Z,24.10
2022-08-25T04:45:56.303Z,24.40
2022-08-25T04:51:58.733Z,24.70
2022-08-25T04:58:01.057Z,25.10
2022-08-25T05:04:05.955Z,25.50
2022-08-25T05:10:08.705Z,26.10
2022-08-25T05:16:11.480Z,29.30
2022-08-25T05:22:13.846Z,31.30
2022-08-25T05:28:16.122Z,32.70
2022-08-25T05:34:19.821Z,34.20
2022-08-25T05:40:25.331Z,35.10
2022-08-25T05:46:27.704Z,34.50
2022-08-25T05:52:34.035Z,35.30
2022-08-25T05:58:37.785Z,36.30
2022-08-25T06:04:41.364Z,36.70
2022-08-25T06:10:43.674Z,32.20
2022-08-25T06:16:46.164Z,30.60
2022-08-25T06:22:49.173Z,29.80
2022-08-25T06:28:51.936Z,29.80
2022-08-25T06:34:54.478Z,31.50
2022-08-25T06:40:58.106Z,36.60
2022-08-25T06:47:00.556Z,33.10
2022-08-25T06:53:03.818Z,30.50
2022-08-25T06:59:08.143Z,29.70
2022-08-25T07:05:17.065Z,29.90
2022-08-25T07:11:29.637Z,32.50
2022-08-25T07:17:32.403Z,37.10
2022-08-25T07:23:34.865Z,37.00
2022-08-25T07:29:42.765Z,36.50
2022-08-25T07:35:45.839Z,35.90
2022-08-25T07:41:48.203Z,34.60
2022-08-25T07:47:54.843Z,35.00
2022-08-25T07:53:57.384Z,34.00
2022-08-25T08:00:00.426Z,34.90
2022-08-25T08:06:08.216Z,33.50
2022-08-25T08:12:10.553Z,33.60
2022-08-25T08:18:13.236Z,36.20
2022-08-25T08:24:38.370Z,38.20
2022-08-25T08:30:37.898Z,39.60
2022-08-25T08:36:40.307Z,39.70
2022-08-25T08:42:48.547Z,41.40
2022-08-25T08:49:02.255Z,41.70
2022-08-25T08:55:11.914Z,41.60
2022-08-25T09:01:19.609Z,41.80
2022-08-25T09:07:28.257Z,41.40
2022-08-25T09:13:58.317Z,41.30
2022-08-25T09:20:19.357Z,42.40
2022-08-25T09:27:00.444Z,42.30
2022-08-25T09:33:05.113Z,41.40
2022-08-25T09:39:09.854Z,41.70
2022-08-25T09:45:14.771Z,41.70
2022-08-25T09:51:42.969Z,40.00
2022-08-25T09:57:56.428Z,40.30
2022-08-25T10:04:06.179Z,41.70
2022-08-25T10:10:23.257Z,41.00
2022-08-25T10:16:34.049Z,41.30
2022-08-25T10:22:43.018Z,40.90
2022-08-25T10:29:07.344Z,41.10
2022-08-25T10:35:29.961Z,41.50
2022-08-25T10:41:53.341Z,40.50
2022-08-25T10:48:13.580Z,40.50
2022-08-25T10:54:51.205Z,39.70
2022-08-25T11:01:43.907Z,39.50
2022-08-25T11:07:50.037Z,39.00
2022-08-25T11:14:11.361Z,39.70
2022-08-25T11:20:27.116Z,39.40
2022-08-25T11:26:37.171Z,39.70
2022-08-25T11:32:40.828Z,39.70
2022-08-25T11:38:59.213Z,39.70
2022-08-25T11:45:20.553Z,39.00
2022-08-25T11:51:36.390Z,39.50
2022-08-25T11:57:39.920Z,39.90
2022-08-25T12:03:42.172Z,39.80
2022-08-25T12:09:56.115Z,39.50
2022-08-25T12:16:01.067Z,39.70
2022-08-25T12:22:04.522Z,39.50
2022-08-25T12:28:27.191Z,40.50
2022-08-25T12:35:07.054Z,40.30
2022-08-25T12:41:11.525Z,40.60
2022-08-25T12:47:20.023Z,41.20
2022-08-25T12:53:38.082Z,40.80
2022-08-25T12:59:48.903Z,40.30
2022-08-25T13:05:53.854Z,40.10
2022-08-25T13:12:28.182Z,40.70
2022-08-25T13:18:36.411Z,40.00
2022-08-25T13:24:43.448Z,39.40
2022-08-25T13:30:57.647Z,38.40
2022-08-25T13:37:26.286Z,37.60
2022-08-25T13:43:28.781Z,36.30
2022-08-25T13:49:31.238Z,35.70
2022-08-25T13:55:51.190Z,34.80
2022-08-25T14:01:55.934Z,34.60
2022-08-25T14:08:15.801Z,34.20
2022-08-25T14:14:23.926Z,34.10
2022-08-25T14:20:29.398Z,34.10
2022-08-25T14:26:31.626Z,34.10
2022-08-25T14:32:34.126Z,34.10
2022-08-25T14:38:44.017Z,34.20
2022-08-25T14:44:47.338Z,34.00
2022-08-25T14:50:50.731Z,33.80
2022-08-25T14:56:53.418Z,33.40
2022-08-25T15:02:57.019Z,33.20
2022-08-25T15:09:11.868Z,33.00
2022-08-25T15:15:14.728Z,32.90
2022-08-25T15:21:17.175Z,32.80
2022-08-25T15:27:21.692Z,32.60
2022-08-25T15:33:24.154Z,32.50
2022-08-25T15:39:28.082Z,32.40
2022-08-25T15:45:30.277Z,32.30
2022-08-25T15:51:33.133Z,32.20
2022-08-25T15:57:35.508Z,32.10
2022-08-25T16:03:41.166Z,31.90
2022-08-25T16:09:43.406Z,31.80
2022-08-25T16:15:53.067Z,31.60
2022-08-25T16:21:57.742Z,31.50
2022-08-25T16:28:01.178Z,31.30
2022-08-25T16:34:03.613Z,31.20
2022-08-25T16:40:08.267Z,31.00
2022-08-25T16:46:14.211Z,30.80
2022-08-25T16:52:35.597Z,30.50
2022-08-25T16:58:38.111Z,30.30
2022-08-25T17:04:42.487Z,30.10
2022-08-25T17:10:44.910Z,29.90
2022-08-25T17:16:50.611Z,29.70
2022-08-25T17:22:53.158Z,29.60
2022-08-25T17:28:56.579Z,29.50
2022-08-25T17:34:59.782Z,29.50
2022-08-25T17:41:07.187Z,29.50
2022-08-25T17:47:10.314Z,29.40
2022-08-25T17:53:13.894Z,29.20
2022-08-25T17:59:19.953Z,29.10
2022-08-25T18:05:22.693Z,29.00
2022-08-25T18:11:25.141Z,28.80
2022-08-25T18:17:28.211Z,28.90
2022-08-25T18:23:31.716Z,28.70
2022-08-25T18:29:34.133Z,28.60
2022-08-25T18:35:36.355Z,28.60
2022-08-25T18:41:42.816Z,28.50
2022-08-25T18:47:48.248Z,28.60
2022-08-25T18:53:54.480Z,28.40
2022-08-25T19:00:01.728Z,28.10
2022-08-25T19:06:04.148Z,28.00
2022-08-25T19:12:06.799Z,27.90
2022-08-25T19:18:15.270Z,27.80
2022-08-25T19:24:20.484Z,27.70
2022-08-25T19:30:25.475Z,27.60
2022-08-25T19:36:29.212Z,27.60
2022-08-25T19:42:36.977Z,27.50
2022-08-25T19:48:41.112Z,27.50
2022-08-25T19:54:46.483Z,27.30
2022-08-25T20:00:51.263Z,27.20
2022-08-25T20:06:55.589Z,27.10
2022-08-25T20:12:58.633Z,27.00
2022-08-25T20:19:01.072Z,26.90
2022-08-25T20:25:13.143Z,26.80
2022-08-25T20:31:15.898Z,26.60
2022-08-25T20:37:18.101Z,26.40
2022-08-25T20:43:21.819Z,26.20
2022-08-25T20:49:27.020Z,26.10
2022-08-25T20:55:29.428Z,26.00
2022-08-25T21:01:42.472Z,25.90
2022-08-25T21:07:44.758Z,25.90
2022-08-25T21:13:47.143Z,25.70
2022-08-25T21:19:49.475Z,25.60
2022-08-25T21:25:51.955Z,25.50
2022-08-25T21:31:54.592Z,25.40
2022-08-25T21:37:56.772Z,25.40
2022-08-25T21:43:59.972Z,25.30
2022-08-25T21:50:02.247Z,25.30
2022-08-25T21:56:06.407Z,25.20
2022-08-25T22:02:11.914Z,25.10
2022-08-25T22:08:14.773Z,25.10
2022-08-25T22:14:18.106Z,25.00
2022-08-25T22:20:20.674Z,24.90
2022-08-25T22:26:23.835Z,24.90
2022-08-25T22:32:29.798Z,24.80
2022-08-25T22:38:32.060Z,24.80
2022-08-25T22:44:34.656Z,24.70
2022-08-25T22:50:37.562Z,24.70
2022-08-25T22:56:40.066Z,24.60
2022-08-25T23:02:43.465Z,24.50
2022-08-25T23:08:47.041Z,24.40
2022-08-25T23:14:50.127Z,24.30
2022-08-25T23:21:10.775Z,24.30
2022-08-25T23:27:17.965Z,24.10
2022-08-25T23:33:20.752Z,24.00
2022-08-25T23:39:23.393Z,23.90
2022-08-25T23:45:26.522Z,23.90
2022-08-25T23:51:32.915Z,23.90
2022-08-25T23:57:35.487Z,23.90
